Daylight, Indiana
Current Conditions -  °F | °C
As of 6:54 AM on Monday 22 Dec 2014 (Local Time) from KEVV Reporting Station
Overcast Overcast  
Wind Chill: 41°   Ceiling: 1200
Heat Index: 41°   Visibility: 10mi
Dew Point: 34°   Wind: 3mph
Humidity: 76%   Direction: 90°E
Pressure: 29.92"   Gusts: NA
Location:  38.1195°N, 87.5368°W
Report Text: KEVV 221254Z 09003KT 10SM OVC012 05/01 A2992 RMK AO2 SLP133 T00500011
Loading
Personal Weather Stations






























Interactive Weather Map New forecast layout! Learn more

10-Day Weather Forecast

Advertisements
Track Severe Weather on mobile